Time;durP1;ratioP1;P1;durP2;ratioP2;P2;SDS_P1;SDS_P2;PMS_P1;PMS_P2;Temp;Humidity;BMP_temperature;BMP_pressure;BME280_temperature;BME280_humidity;BME280_pressure;Samples;Min_cycle;Max_cycle;Signal;HPM_P1;HPM_P2
2023/06/12 00:00:53;;;;;;;;;;;19.70;78.70;;;;;;4877162;29;19928;-85
2023/06/12 00:03:19;;;;;;;;;;;19.60;79.80;;;;;;4897563;29;19927;-85
2023/06/12 00:05:45;;;;;;;;;;;19.50;81.40;;;;;;4881547;29;19952;-86
2023/06/12 00:08:13;;;;;;;;;;;19.40;79.60;;;;;;4869102;29;19935;-85
2023/06/12 00:10:40;;;;;;;;;;;19.30;80.00;;;;;;4904251;29;20383;-85
2023/06/12 00:13:07;;;;;;;;;;;19.20;80.50;;;;;;4880270;29;20006;-86
2023/06/12 00:15:34;;;;;;;;;;;19.20;80.90;;;;;;4895519;29;19928;-87
2023/06/12 00:18:00;;;;;;;;;;;19.10;81.30;;;;;;4879039;29;19978;-86
2023/06/12 00:20:27;;;;;;;;;;;19.00;81.10;;;;;;4868403;29;19961;-86
2023/06/12 00:22:53;;;;;;;;;;;19.00;81.30;;;;;;4892908;29;19931;-86
2023/06/12 00:25:19;;;;;;;;;;;18.90;82.00;;;;;;4897508;29;19935;-86
2023/06/12 00:27:44;;;;;;;;;;;18.90;81.30;;;;;;4900467;29;19931;-84
2023/06/12 00:30:10;;;;;;;;;;;18.80;82.00;;;;;;4878478;29;19951;-87
2023/06/12 00:32:36;;;;;;;;;;;18.80;80.70;;;;;;4898169;29;19932;-85
2023/06/12 00:35:01;;;;;;;;;;;18.80;80.80;;;;;;4883106;29;19952;-86
2023/06/12 00:37:27;;;;;;;;;;;18.80;80.90;;;;;;4899240;29;20356;-85
2023/06/12 00:39:53;;;;;;;;;;;18.80;82.00;;;;;;4876391;29;20000;-85
2023/06/12 00:42:20;;;;;;;;;;;18.80;82.10;;;;;;4879961;29;19931;-86
2023/06/12 00:44:45;;;;;;;;;;;18.80;81.20;;;;;;4895662;29;19979;-85
2023/06/12 00:47:12;;;;;;;;;;;18.70;81.40;;;;;;4899087;29;19931;-84
2023/06/12 00:49:37;;;;;;;;;;;18.70;81.80;;;;;;4889586;29;19934;-85
2023/06/12 00:52:04;;;;;;;;;;;18.60;82.10;;;;;;4897652;29;19935;-85
2023/06/12 00:54:30;;;;;;;;;;;18.50;82.30;;;;;;4880673;29;19951;-84
2023/06/12 00:56:56;;;;;;;;;;;18.50;82.60;;;;;;4880791;29;20358;-85
2023/06/12 00:59:22;;;;;;;;;;;18.50;82.50;;;;;;4884021;29;19935;-85
2023/06/12 01:01:48;;;;;;;;;;;18.50;82.30;;;;;;4879088;29;20464;-84
2023/06/12 01:04:14;;;;;;;;;;;18.40;82.90;;;;;;4893304;29;20435;-85
2023/06/12 01:06:43;;;;;;;;;;;18.40;83.10;;;;;;4894356;29;19927;-85
2023/06/12 01:09:12;;;;;;;;;;;18.40;83.10;;;;;;4885928;29;20010;-86
2023/06/12 01:11:38;;;;;;;;;;;18.30;83.30;;;;;;4893475;29;19954;-85
2023/06/12 01:14:04;;;;;;;;;;;18.30;83.80;;;;;;4895631;29;19939;-85
2023/06/12 01:16:31;;;;;;;;;;;18.30;83.80;;;;;;4879011;29;19927;-86
2023/06/12 01:18:57;;;;;;;;;;;18.20;84.30;;;;;;4882184;29;19983;-85
2023/06/12 01:21:24;;;;;;;;;;;18.20;84.50;;;;;;4898805;29;19927;-85
2023/06/12 01:24:13;;;;;;;;;;;18.10;84.70;;;;;;4886766;29;19931;-85
2023/06/12 01:26:48;;;;;;;;;;;18.10;85.00;;;;;;4853693;29;20006;-85
2023/06/12 01:29:16;;;;;;;;;;;18.00;85.40;;;;;;4896991;29;19928;-84
2023/06/12 01:32:01;;;;;;;;;;;17.90;85.50;;;;;;4894923;29;19950;-86
2023/06/12 01:34:29;;;;;;;;;;;17.90;85.90;;;;;;4899636;29;20373;-85
2023/06/12 01:37:01;;;;;;;;;;;17.90;86.10;;;;;;4885810;29;19927;-86
2023/06/12 01:39:28;;;;;;;;;;;17.90;86.50;;;;;;4901512;29;19950;-85
2023/06/12 01:41:53;;;;;;;;;;;17.90;86.80;;;;;;4903772;29;19957;-85
2023/06/12 01:44:19;;;;;;;;;;;17.80;87.30;;;;;;4885494;29;19927;-85
2023/06/12 01:46:45;;;;;;;;;;;17.80;87.40;;;;;;4900258;29;20267;-85
2023/06/12 01:49:11;;;;;;;;;;;17.70;88.10;;;;;;4909107;29;19976;-86
2023/06/12 01:51:36;;;;;;;;;;;17.60;88.40;;;;;;4897700;29;20017;-86
2023/06/12 01:54:02;;;;;;;;;;;17.60;88.80;;;;;;4891774;29;19927;-86
2023/06/12 01:56:28;;;;;;;;;;;17.60;89.60;;;;;;4904271;29;19927;-86
2023/06/12 01:58:54;;;;;;;;;;;17.50;89.70;;;;;;4888372;29;20287;-87
2023/06/12 02:01:20;;;;;;;;;;;17.50;89.00;;;;;;4902621;29;19959;-86
2023/06/12 02:03:46;;;;;;;;;;;17.40;90.10;;;;;;4901335;29;19927;-85
2023/06/12 02:06:16;;;;;;;;;;;17.40;90.60;;;;;;4909727;29;19928;-86
2023/06/12 02:08:42;;;;;;;;;;;17.40;91.00;;;;;;4891312;29;19978;-85
2023/06/12 02:11:07;;;;;;;;;;;17.30;91.40;;;;;;4904347;29;20353;-86
2023/06/12 02:13:33;;;;;;;;;;;17.20;91.70;;;;;;4906209;29;19927;-85
2023/06/12 02:16:00;;;;;;;;;;;17.10;91.80;;;;;;4889647;29;19931;-86
2023/06/12 02:18:26;;;;;;;;;;;17.00;92.20;;;;;;4884087;29;19935;-86
2023/06/12 02:20:51;;;;;;;;;;;17.00;92.20;;;;;;4882279;29;19929;-86
2023/06/12 02:23:17;;;;;;;;;;;16.90;92.60;;;;;;4875417;29;19927;-86
2023/06/12 02:25:42;;;;;;;;;;;16.80;93.00;;;;;;4899285;29;20109;-86
2023/06/12 02:28:08;;;;;;;;;;;16.80;93.20;;;;;;4900012;29;20449;-86
2023/06/12 02:30:34;;;;;;;;;;;16.80;93.40;;;;;;4900419;29;19938;-86
2023/06/12 02:33:02;;;;;;;;;;;16.70;93.50;;;;;;4899594;29;20314;-85
2023/06/12 02:35:28;;;;;;;;;;;16.70;93.80;;;;;;4899474;29;19932;-85
2023/06/12 02:37:53;;;;;;;;;;;16.70;94.90;;;;;;4896634;29;19931;-85
2023/06/12 02:40:19;;;;;;;;;;;16.60;94.70;;;;;;4896896;29;19927;-85
2023/06/12 02:42:45;;;;;;;;;;;16.50;95.20;;;;;;4902321;29;19977;-85
2023/06/12 02:45:10;;;;;;;;;;;16.50;95.60;;;;;;4886193;29;19934;-85
2023/06/12 02:47:36;;;;;;;;;;;16.40;96.60;;;;;;4889554;29;19932;-85
2023/06/12 02:50:02;;;;;;;;;;;16.40;96.20;;;;;;4900683;29;19974;-85
2023/06/12 02:52:27;;;;;;;;;;;16.30;96.40;;;;;;4904888;29;19935;-87
2023/06/12 02:54:53;;;;;;;;;;;16.20;97.00;;;;;;4891753;29;19931;-85
2023/06/12 02:57:19;;;;;;;;;;;16.20;97.60;;;;;;4895395;29;20293;-85
2023/06/12 02:59:44;;;;;;;;;;;16.10;97.70;;;;;;4902612;29;19966;-85
2023/06/12 03:02:10;;;;;;;;;;;16.10;98.30;;;;;;4905252;29;19927;-85
2023/06/12 03:04:35;;;;;;;;;;;16.00;98.10;;;;;;4888772;29;19995;-85
2023/06/12 03:07:05;;;;;;;;;;;15.50;98.60;;;;;;4901115;29;20069;-85
2023/06/12 03:09:32;;;;;;;;;;;16.00;98.70;;;;;;4896138;29;19938;-86
2023/06/12 03:11:58;;;;;;;;;;;16.00;99.00;;;;;;4895741;29;19935;-85
2023/06/12 03:14:26;;;;;;;;;;;15.90;99.40;;;;;;4899274;29;20490;-85
2023/06/12 03:16:52;;;;;;;;;;;15.90;99.10;;;;;;4889879;29;19927;-85
2023/06/12 03:19:17;;;;;;;;;;;17.60;99.90;;;;;;4883485;29;19927;-84
2023/06/12 03:21:43;;;;;;;;;;;15.90;98.90;;;;;;4880962;29;19966;-84
2023/06/12 03:24:09;;;;;;;;;;;15.90;99.80;;;;;;4883619;29;19938;-86
2023/06/12 03:26:35;;;;;;;;;;;15.90;99.90;;;;;;4899330;29;20022;-84
2023/06/12 03:29:01;;;;;;;;;;;15.80;99.90;;;;;;4893425;29;19987;-85
2023/06/12 03:31:27;;;;;;;;;;;15.80;99.90;;;;;;4884207;29;19927;-85
2023/06/12 03:33:56;;;;;;;;;;;15.70;99.90;;;;;;4883250;29;19938;-85
2023/06/12 03:36:25;;;;;;;;;;;15.70;99.90;;;;;;4878225;29;20010;-85
2023/06/12 03:38:51;;;;;;;;;;;15.70;99.90;;;;;;4881749;29;19934;-85
2023/06/12 03:41:21;;;;;;;;;;;15.80;99.90;;;;;;4903356;29;20021;-86
2023/06/12 03:43:46;;;;;;;;;;;15.70;99.90;;;;;;4906749;29;19930;-85
2023/06/12 03:46:12;;;;;;;;;;;15.70;99.90;;;;;;4890570;29;19982;-85
2023/06/12 03:48:38;;;;;;;;;;;15.70;99.90;;;;;;4886255;29;20345;-85
2023/06/12 03:51:03;;;;;;;;;;;15.70;99.90;;;;;;4885642;29;19931;-85
2023/06/12 03:53:29;;;;;;;;;;;15.70;99.90;;;;;;4895077;29;19927;-85
2023/06/12 03:55:55;;;;;;;;;;;15.80;99.90;;;;;;4887256;29;20381;-85
2023/06/12 03:58:21;;;;;;;;;;;15.80;99.90;;;;;;4902008;29;19927;-85
2023/06/12 04:00:47;;;;;;;;;;;15.80;99.90;;;;;;4902293;29;19933;-85
2023/06/12 04:03:20;;;;;;;;;;;15.90;99.90;;;;;;4900947;29;19927;-85
2023/06/12 04:05:48;;;;;;;;;;;15.90;99.90;;;;;;4902150;29;19971;-85
2023/06/12 04:08:13;;;;;;;;;;;16.00;99.90;;;;;;4902360;29;19975;-86
2023/06/12 04:10:40;;;;;;;;;;;16.10;99.90;;;;;;4882356;29;19927;-85
2023/06/12 04:13:06;;;;;;;;;;;16.10;99.90;;;;;;4871036;29;19974;-85
2023/06/12 04:15:31;;;;;;;;;;;16.10;99.90;;;;;;4902797;29;19990;-85
2023/06/12 04:17:57;;;;;;;;;;;16.10;99.90;;;;;;4884254;29;19927;-85
2023/06/12 04:20:23;;;;;;;;;;;16.10;99.90;;;;;;4906823;29;19934;-85
2023/06/12 04:22:49;;;;;;;;;;;16.10;99.90;;;;;;4887083;29;19934;-84
2023/06/12 04:25:15;;;;;;;;;;;16.10;99.90;;;;;;4900729;29;19935;-85
2023/06/12 04:27:42;;;;;;;;;;;16.10;99.90;;;;;;4885406;29;19933;-84
2023/06/12 04:30:09;;;;;;;;;;;16.20;99.90;;;;;;4901354;29;20025;-85
2023/06/12 04:32:34;;;;;;;;;;;16.20;99.90;;;;;;4900058;29;19970;-86
2023/06/12 04:35:01;;;;;;;;;;;16.30;99.90;;;;;;4898577;29;20353;-85
2023/06/12 04:37:27;;;;;;;;;;;16.20;99.90;;;;;;4883348;29;20010;-85
2023/06/12 04:39:53;;;;;;;;;;;16.30;99.90;;;;;;4888379;29;20018;-85
2023/06/12 04:42:18;;;;;;;;;;;16.30;99.90;;;;;;4883381;29;19927;-85
2023/06/12 04:44:46;;;;;;;;;;;16.30;99.90;;;;;;4888459;29;19931;-85
2023/06/12 04:47:12;;;;;;;;;;;16.30;99.90;;;;;;4882696;29;19934;-85
2023/06/12 04:49:41;;;;;;;;;;;16.30;99.90;;;;;;4898525;29;20334;-85
2023/06/12 04:52:12;;;;;;;;;;;16.40;99.90;;;;;;4894455;29;19928;-86
2023/06/12 04:54:41;;;;;;;;;;;16.30;99.90;;;;;;4883745;29;19991;-88
2023/06/12 04:57:08;;;;;;;;;;;16.40;99.90;;;;;;4894599;29;19931;-85
2023/06/12 04:59:37;;;;;;;;;;;16.50;99.90;;;;;;4891251;29;20021;-85
2023/06/12 05:02:03;;;;;;;;;;;16.40;99.90;;;;;;4895779;29;20301;-86
2023/06/12 05:04:29;;;;;;;;;;;16.50;99.90;;;;;;4891389;29;19931;-88
2023/06/12 05:06:56;;;;;;;;;;;16.60;99.90;;;;;;4882597;29;20014;-86
2023/06/12 05:09:21;;;;;;;;;;;16.50;99.90;;;;;;4882620;29;19971;-86
2023/06/12 05:11:47;;;;;;;;;;;16.60;99.90;;;;;;4870989;29;19985;-85
2023/06/12 05:14:13;;;;;;;;;;;16.50;99.90;;;;;;4903772;29;19927;-85
2023/06/12 05:16:38;;;;;;;;;;;16.60;99.90;;;;;;4908919;29;19927;-85
2023/06/12 05:19:05;;;;;;;;;;;16.60;99.90;;;;;;4907025;29;19932;-86
2023/06/12 05:21:31;;;;;;;;;;;16.70;99.90;;;;;;4874744;29;20345;-85
2023/06/12 05:23:56;;;;;;;;;;;15.30;99.90;;;;;;4884864;29;20014;-85
2023/06/12 05:26:23;;;;;;;;;;;16.90;99.90;;;;;;4880712;29;19951;-84
2023/06/12 05:28:48;;;;;;;;;;;17.00;99.90;;;;;;4894896;29;19996;-87
2023/06/12 05:31:14;;;;;;;;;;;16.90;99.90;;;;;;4894509;29;19970;-86
2023/06/12 05:33:40;;;;;;;;;;;17.00;99.90;;;;;;4885616;29;19934;-87
2023/06/12 05:36:11;;;;;;;;;;;16.90;99.90;;;;;;4898507;29;19935;-87
2023/06/12 05:38:38;;;;;;;;;;;16.90;99.90;;;;;;4887163;29;19928;-88
2023/06/12 05:41:06;;;;;;;;;;;17.60;99.90;;;;;;4900295;29;20454;-87
2023/06/12 05:43:34;;;;;;;;;;;17.10;99.90;;;;;;4883366;29;20014;-86
2023/06/12 05:46:00;;;;;;;;;;;17.10;99.90;;;;;;4907541;29;19927;-88
2023/06/12 05:48:26;;;;;;;;;;;17.30;99.90;;;;;;4894897;29;19939;-86
2023/06/12 05:50:52;;;;;;;;;;;17.20;99.90;;;;;;4859428;29;19950;-88
2023/06/12 05:53:20;;;;;;;;;;;17.30;99.90;;;;;;4885284;29;20010;-86
2023/06/12 05:55:46;;;;;;;;;;;17.40;99.90;;;;;;4898743;29;20022;-86
2023/06/12 05:58:12;;;;;;;;;;;17.40;99.90;;;;;;4902617;29;20352;-86
2023/06/12 06:00:37;;;;;;;;;;;17.30;99.90;;;;;;4895421;29;19936;-88
2023/06/12 06:03:04;;;;;;;;;;;17.40;99.90;;;;;;4874616;29;19934;-89
2023/06/12 06:05:32;;;;;;;;;;;17.60;99.90;;;;;;4897844;29;19931;-86
2023/06/12 06:07:58;;;;;;;;;;;17.50;99.90;;;;;;4880065;29;19974;-86
2023/06/12 06:10:24;;;;;;;;;;;17.50;99.90;;;;;;4898303;29;19983;-87
2023/06/12 06:12:52;;;;;;;;;;;17.80;99.90;;;;;;4881861;29;19928;-87
2023/06/12 06:15:18;;;;;;;;;;;17.80;99.90;;;;;;4906473;29;19939;-87
2023/06/12 06:17:44;;;;;;;;;;;17.50;99.90;;;;;;4873700;29;20311;-87
2023/06/12 06:20:13;;;;;;;;;;;17.60;99.90;;;;;;4868005;29;20390;-88
2023/06/12 06:22:44;;;;;;;;;;;17.80;99.90;;;;;;4890567;29;19928;-88
2023/06/12 06:25:09;;;;;;;;;;;17.80;99.90;;;;;;4883293;29;20333;-89
2023/06/12 06:27:35;;;;;;;;;;;17.90;99.90;;;;;;4882876;29;20018;-87
2023/06/12 06:30:02;;;;;;;;;;;18.00;99.90;;;;;;4886618;29;21715;-87
2023/06/12 06:32:27;;;;;;;;;;;18.10;99.90;;;;;;4897282;29;19928;-85
2023/06/12 06:34:53;;;;;;;;;;;18.00;99.90;;;;;;4895150;29;19942;-87
2023/06/12 06:37:19;;;;;;;;;;;18.20;99.90;;;;;;4900621;29;19928;-87
2023/06/12 06:39:48;;;;;;;;;;;18.20;99.90;;;;;;4891658;29;19967;-87
2023/06/12 06:42:13;;;;;;;;;;;18.30;99.90;;;;;;4889566;29;19928;-89
2023/06/12 06:44:39;;;;;;;;;;;18.40;99.90;;;;;;4879585;29;19928;-87
2023/06/12 06:47:09;;;;;;;;;;;20.20;99.90;;;;;;4897578;29;19937;-87
2023/06/12 06:49:35;;;;;;;;;;;18.80;99.90;;;;;;4890587;29;19931;-85
2023/06/12 06:52:01;;;;;;;;;;;17.20;99.90;;;;;;4892015;29;19927;-88
2023/06/12 06:54:26;;;;;;;;;;;18.50;99.90;;;;;;4895442;29;19938;-86
2023/06/12 06:56:52;;;;;;;;;;;18.70;99.90;;;;;;4887203;29;19932;-85
2023/06/12 06:59:18;;;;;;;;;;;18.50;99.90;;;;;;4897596;29;19982;-86
2023/06/12 07:01:49;;;;;;;;;;;18.70;99.90;;;;;;4899001;29;19934;-87
2023/06/12 07:04:14;;;;;;;;;;;18.70;99.90;;;;;;4880888;29;19935;-85
2023/06/12 07:06:40;;;;;;;;;;;18.90;99.90;;;;;;4897418;29;19928;-86
2023/06/12 07:09:07;;;;;;;;;;;18.80;99.90;;;;;;4881616;29;19928;-86
2023/06/12 07:11:32;;;;;;;;;;;19.10;99.90;;;;;;4885503;29;20381;-85
2023/06/12 07:13:58;;;;;;;;;;;19.10;99.90;;;;;;4903750;29;19928;-85
2023/06/12 07:16:24;;;;;;;;;;;19.00;99.90;;;;;;4908645;29;20100;-85
2023/06/12 07:18:50;;;;;;;;;;;19.00;99.90;;;;;;4889135;29;19935;-86
2023/06/12 07:21:15;;;;;;;;;;;19.00;99.90;;;;;;4906285;29;19979;-85
2023/06/12 07:23:41;;;;;;;;;;;19.10;99.90;;;;;;4904609;29;19927;-86
2023/06/12 07:26:07;;;;;;;;;;;19.20;99.90;;;;;;4896768;29;19927;-86
2023/06/12 07:28:33;;;;;;;;;;;19.30;99.90;;;;;;4907586;29;20014;-86
2023/06/12 07:31:00;;;;;;;;;;;19.40;99.90;;;;;;4887437;29;19935;-86
2023/06/12 07:33:28;;;;;;;;;;;19.30;99.90;;;;;;4900315;29;20092;-85
2023/06/12 07:35:54;;;;;;;;;;;19.50;99.90;;;;;;4871269;29;19937;-86
2023/06/12 07:38:20;;;;;;;;;;;19.40;99.90;;;;;;4880425;29;20318;-86
2023/06/12 07:40:45;;;;;;;;;;;19.50;99.90;;;;;;4883838;29;20351;-86
2023/06/12 07:43:11;;;;;;;;;;;19.50;99.90;;;;;;4894017;29;19927;-86
2023/06/12 07:45:37;;;;;;;;;;;19.70;99.90;;;;;;4890837;29;19962;-88
2023/06/12 07:48:02;;;;;;;;;;;19.60;99.90;;;;;;4907898;29;19928;-86
2023/06/12 07:50:28;;;;;;;;;;;19.70;99.90;;;;;;4888201;29;19939;-86
2023/06/12 07:52:56;;;;;;;;;;;19.90;99.90;;;;;;4896306;29;20044;-85
2023/06/12 07:55:22;;;;;;;;;;;19.90;99.90;;;;;;4887081;29;19928;-84
2023/06/12 07:57:47;;;;;;;;;;;20.00;99.90;;;;;;4896874;29;19927;-85
2023/06/12 08:00:13;;;;;;;;;;;20.10;99.90;;;;;;4889332;29;20114;-85
2023/06/12 08:02:40;;;;;;;;;;;20.30;99.90;;;;;;4896374;29;19928;-84
2023/06/12 08:05:10;;;;;;;;;;;20.30;99.90;;;;;;4885717;29;20416;-84
2023/06/12 08:07:36;;;;;;;;;;;20.40;99.90;;;;;;4903936;29;19932;-85
2023/06/12 08:10:02;;;;;;;;;;;20.50;99.90;;;;;;4871850;29;19928;-87
2023/06/12 08:12:28;;;;;;;;;;;20.50;99.90;;;;;;4871504;29;19939;-86
2023/06/12 08:14:54;;;;;;;;;;;20.60;99.90;;;;;;4902992;29;19927;-86
2023/06/12 08:17:23;;;;;;;;;;;20.50;99.90;;;;;;4901999;29;20369;-86
2023/06/12 08:19:55;;;;;;;;;;;20.80;99.90;;;;;;4886170;29;19928;-86
2023/06/12 08:22:23;;;;;;;;;;;21.00;99.90;;;;;;4900331;29;20322;-84
2023/06/12 08:24:49;;;;;;;;;;;19.90;99.90;;;;;;4899834;29;19970;-85
2023/06/12 08:27:17;;;;;;;;;;;21.20;99.90;;;;;;4884167;29;19997;-85
2023/06/12 08:29:42;;;;;;;;;;;21.00;99.90;;;;;;4886398;29;19928;-88
2023/06/12 08:32:10;;;;;;;;;;;21.20;99.90;;;;;;4899711;29;19927;-86
2023/06/12 08:34:36;;;;;;;;;;;21.10;99.90;;;;;;4898591;29;20369;-86
2023/06/12 08:37:02;;;;;;;;;;;21.30;99.90;;;;;;4884182;29;19927;-86
2023/06/12 08:39:28;;;;;;;;;;;22.20;99.90;;;;;;4883999;29;20003;-85
2023/06/12 08:41:53;;;;;;;;;;;21.40;99.90;;;;;;4903450;29;19927;-86
2023/06/12 08:44:24;;;;;;;;;;;20.50;99.90;;;;;;4883586;29;20409;-85
2023/06/12 08:46:53;;;;;;;;;;;21.60;99.90;;;;;;4883647;29;19928;-86
2023/06/12 08:49:21;;;;;;;;;;;21.60;99.90;;;;;;4883019;29;19928;-87
2023/06/12 08:51:49;;;;;;;;;;;21.70;99.90;;;;;;4899528;29;20285;-85
2023/06/12 08:54:15;;;;;;;;;;;21.80;99.90;;;;;;4912111;29;19975;-86
2023/06/12 08:56:42;;;;;;;;;;;21.90;99.90;;;;;;4883996;29;19927;-86
2023/06/12 08:59:10;;;;;;;;;;;22.00;99.90;;;;;;4899132;29;19927;-87
2023/06/12 09:01:37;;;;;;;;;;;22.20;99.90;;;;;;4883324;29;19933;-85
2023/06/12 09:04:18;;;;;;;;;;;22.30;99.90;;;;;;4898211;29;19986;-86
2023/06/12 09:06:45;;;;;;;;;;;22.30;98.50;;;;;;4883324;29;20018;-87
2023/06/12 09:09:11;;;;;;;;;;;22.60;97.80;;;;;;4892934;29;20342;-87
2023/06/12 09:11:37;;;;;;;;;;;21.90;98.50;;;;;;4882881;29;20018;-86
2023/06/12 09:14:03;;;;;;;;;;;22.60;97.50;;;;;;4883415;29;19932;-87
2023/06/12 09:16:29;;;;;;;;;;;22.70;97.20;;;;;;4883170;29;19943;-87
2023/06/12 09:18:55;;;;;;;;;;;22.90;97.60;;;;;;4882640;29;19931;-87
2023/06/12 09:21:21;;;;;;;;;;;23.00;96.30;;;;;;4904234;29;19963;-87
2023/06/12 09:23:50;;;;;;;;;;;23.00;93.70;;;;;;4883523;29;19927;-84
2023/06/12 09:26:16;;;;;;;;;;;23.20;93.20;;;;;;4883355;29;19928;-87
2023/06/12 09:28:42;;;;;;;;;;;23.30;93.10;;;;;;4894680;29;19935;-86
2023/06/12 09:31:08;;;;;;;;;;;23.20;93.10;;;;;;4883005;29;19974;-86
2023/06/12 09:33:40;;;;;;;;;;;23.40;93.70;;;;;;4860688;29;20441;-87
2023/06/12 09:36:16;;;;;;;;;;;22.30;93.30;;;;;;4877741;29;19927;-86
2023/06/12 09:38:42;;;;;;;;;;;23.60;93.40;;;;;;4895210;29;19928;-87
2023/06/12 09:41:08;;;;;;;;;;;23.60;93.70;;;;;;4860334;29;19934;-86
2023/06/12 09:43:34;;;;;;;;;;;23.80;93.30;;;;;;4882465;29;19931;-87
2023/06/12 09:46:03;;;;;;;;;;;23.80;93.30;;;;;;4874693;29;20370;-86
2023/06/12 09:48:35;;;;;;;;;;;24.00;92.70;;;;;;4897594;29;19936;-87
2023/06/12 09:51:05;;;;;;;;;;;24.10;91.50;;;;;;4889648;29;20002;-87
2023/06/12 09:53:36;;;;;;;;;;;24.20;91.70;;;;;;4885106;29;19928;-86
2023/06/12 09:56:06;;;;;;;;;;;24.20;90.90;;;;;;4897038;29;19927;-86
2023/06/12 09:58:33;;;;;;;;;;;24.30;89.20;;;;;;4873080;29;20271;-87
2023/06/12 10:01:03;;;;;;;;;;;24.20;90.90;;;;;;4889580;29;19938;-86
2023/06/12 10:03:30;;;;;;;;;;;24.30;91.30;;;;;;4881876;29;19992;-87
2023/06/12 10:05:57;;;;;;;;;;;24.50;91.80;;;;;;4894765;29;19927;-86
2023/06/12 10:08:23;;;;;;;;;;;24.50;91.30;;;;;;4882396;29;19935;-87
2023/06/12 10:10:51;;;;;;;;;;;24.70;91.60;;;;;;4882344;29;19928;-85
2023/06/12 10:13:19;;;;;;;;;;;24.80;91.30;;;;;;4897489;29;19934;-86
2023/06/12 10:15:45;;;;;;;;;;;24.70;91.40;;;;;;4885126;29;19931;-87
2023/06/12 10:18:13;;;;;;;;;;;24.70;91.70;;;;;;4895329;29;19928;-87
2023/06/12 10:20:49;;;;;;;;;;;24.70;90.80;;;;;;4907022;29;19927;-87
2023/06/12 10:23:15;;;;;;;;;;;23.10;90.50;;;;;;4871891;29;19932;-86
2023/06/12 10:25:44;;;;;;;;;;;24.90;90.20;;;;;;4882231;29;19927;-87
2023/06/12 10:28:11;;;;;;;;;;;25.10;90.70;;;;;;4877072;29;19934;-86
2023/06/12 10:30:36;;;;;;;;;;;25.10;92.00;;;;;;4893302;29;19928;-88
2023/06/12 10:33:14;;;;;;;;;;;25.10;90.00;;;;;;4882623;29;19935;-87
2023/06/12 10:35:42;;;;;;;;;;;25.20;88.90;;;;;;4892346;29;19982;-88
2023/06/12 10:38:10;;;;;;;;;;;25.20;90.00;;;;;;4876794;29;19927;-88
2023/06/12 10:40:38;;;;;;;;;;;24.10;88.40;;;;;;4891802;29;19927;-87
2023/06/12 10:43:04;;;;;;;;;;;25.90;90.30;;;;;;4891063;29;19928;-88
2023/06/12 10:45:31;;;;;;;;;;;25.70;84.30;;;;;;4881266;29;19983;-87
2023/06/12 10:48:03;;;;;;;;;;;25.70;84.10;;;;;;4880818;29;19928;-88
2023/06/12 10:50:29;;;;;;;;;;;25.70;84.70;;;;;;4907316;29;20021;-87
2023/06/12 10:52:55;;;;;;;;;;;25.90;85.70;;;;;;4899325;29;20028;-87
2023/06/12 10:55:21;;;;;;;;;;;26.00;82.90;;;;;;4897489;29;19933;-87
2023/06/12 10:57:50;;;;;;;;;;;26.20;81.90;;;;;;4887811;29;19928;-86
2023/06/12 11:00:17;;;;;;;;;;;26.30;81.10;;;;;;4881103;29;19969;-86
2023/06/12 11:02:56;;;;;;;;;;;24.90;79.70;;;;;;4881087;29;19928;-87
2023/06/12 11:05:24;;;;;;;;;;;26.90;78.00;;;;;;4881388;29;19927;-86
2023/06/12 11:07:50;;;;;;;;;;;26.60;81.30;;;;;;4881430;29;19927;-85
2023/06/12 11:10:19;;;;;;;;;;;26.60;77.10;;;;;;4897518;29;20286;-86
2023/06/12 11:12:51;;;;;;;;;;;26.70;77.90;;;;;;4897030;29;19990;-88
2023/06/12 11:15:17;;;;;;;;;;;26.80;79.70;;;;;;4905495;29;19934;-86
2023/06/12 11:17:49;;;;;;;;;;;26.90;77.90;;;;;;4882295;29;19928;-86
2023/06/12 11:20:17;;;;;;;;;;;26.90;76.00;;;;;;4876637;29;19932;-85
2023/06/12 11:22:45;;;;;;;;;;;26.00;75.70;;;;;;4896165;29;19928;-86
2023/06/12 11:25:11;;;;;;;;;;;27.00;77.50;;;;;;4906114;29;19935;-86
2023/06/12 11:27:37;;;;;;;;;;;27.10;77.70;;;;;;4864956;29;19928;-84
2023/06/12 11:30:12;;;;;;;;;;;27.20;76.30;;;;;;4881892;29;20014;-86
2023/06/12 11:32:38;;;;;;;;;;;27.30;73.50;;;;;;4896083;29;19938;-86
2023/06/12 11:35:05;;;;;;;;;;;27.40;72.40;;;;;;4888736;29;20369;-86
2023/06/12 11:37:32;;;;;;;;;;;27.50;70.50;;;;;;4884058;29;20302;-86
2023/06/12 11:40:07;;;;;;;;;;;27.70;71.10;;;;;;4895398;29;19966;-87
2023/06/12 11:42:32;;;;;;;;;;;27.80;69.60;;;;;;4907470;29;19932;-86
2023/06/12 11:44:59;;;;;;;;;;;28.00;69.10;;;;;;4871114;29;19998;-86
2023/06/12 11:47:24;;;;;;;;;;;28.20;67.20;;;;;;4895894;29;19994;-85
2023/06/12 11:49:50;;;;;;;;;;;28.50;68.70;;;;;;4880750;29;20394;-87
2023/06/12 11:52:19;;;;;;;;;;;28.30;69.20;;;;;;4890953;29;19978;-88
2023/06/12 11:55:02;;;;;;;;;;;28.30;69.00;;;;;;4890013;29;19931;-87
2023/06/12 11:57:28;;;;;;;;;;;28.50;65.20;;;;;;4883280;29;20365;-87
2023/06/12 11:59:56;;;;;;;;;;;28.50;64.90;;;;;;4884660;29;19928;-87
2023/06/12 12:02:29;;;;;;;;;;;28.40;63.10;;;;;;4885905;29;19928;-86
2023/06/12 12:04:58;;;;;;;;;;;28.30;62.40;;;;;;4901570;29;20305;-88
2023/06/12 12:07:24;;;;;;;;;;;28.10;62.60;;;;;;4884278;29;19928;-85
2023/06/12 12:10:01;;;;;;;;;;;28.10;63.80;;;;;;4899669;29;20343;-87
2023/06/12 12:12:27;;;;;;;;;;;28.10;63.30;;;;;;4877072;29;20366;-86
2023/06/12 12:14:52;;;;;;;;;;;28.30;62.80;;;;;;4884324;29;19934;-87
2023/06/12 12:17:18;;;;;;;;;;;28.40;62.00;;;;;;4890557;29;20349;-88
2023/06/12 12:19:44;;;;;;;;;;;28.60;61.50;;;;;;4884501;29;19935;-87
2023/06/12 12:22:09;;;;;;;;;;;28.70;61.50;;;;;;4885252;29;19927;-88
2023/06/12 12:24:38;;;;;;;;;;;28.70;61.60;;;;;;4886474;29;19952;-87
2023/06/12 12:27:04;;;;;;;;;;;;;;;;;;4887333;29;19927;-87
2023/06/12 12:29:33;;;;;;;;;;;28.90;61.30;;;;;;4881338;29;20331;-87
2023/06/12 12:31:59;;;;;;;;;;;28.70;62.00;;;;;;4896115;29;20289;-88
2023/06/12 12:34:26;;;;;;;;;;;28.80;62.20;;;;;;4887006;29;19935;-87
2023/06/12 12:36:52;;;;;;;;;;;28.80;62.20;;;;;;4896645;29;20405;-88
2023/06/12 12:39:17;;;;;;;;;;;29.00;61.80;;;;;;4896302;29;19935;-87
2023/06/12 12:41:43;;;;;;;;;;;29.00;62.80;;;;;;4883683;29;19927;-88
2023/06/12 12:44:09;;;;;;;;;;;29.10;62.10;;;;;;4864670;29;19943;-89
2023/06/12 12:46:35;;;;;;;;;;;29.10;61.00;;;;;;4890062;29;19932;-87
2023/06/12 12:49:01;;;;;;;;;;;29.30;60.10;;;;;;4882072;29;20026;-87
2023/06/12 12:51:26;;;;;;;;;;;29.40;60.30;;;;;;4877768;29;19934;-87
2023/06/12 12:53:52;;;;;;;;;;;29.30;61.00;;;;;;4899294;29;19935;-87
2023/06/12 12:56:17;;;;;;;;;;;29.30;61.30;;;;;;4899485;29;19927;-87
2023/06/12 12:58:46;;;;;;;;;;;29.30;61.90;;;;;;4899197;29;20001;-88
2023/06/12 13:01:12;;;;;;;;;;;29.30;61.50;;;;;;4883696;29;19927;-88
2023/06/12 13:03:38;;;;;;;;;;;29.40;61.80;;;;;;4893003;29;19962;-86
2023/06/12 13:06:07;;;;;;;;;;;29.50;61.00;;;;;;4883331;29;19927;-87
2023/06/12 13:08:34;;;;;;;;;;;29.40;61.10;;;;;;4898240;29;19934;-86
2023/06/12 13:11:00;;;;;;;;;;;29.40;59.90;;;;;;4910193;29;19927;-88
2023/06/12 13:13:26;;;;;;;;;;;29.40;60.20;;;;;;4883240;29;19982;-88
2023/06/12 13:15:51;;;;;;;;;;;29.50;59.80;;;;;;4882745;29;19931;-86
2023/06/12 13:18:18;;;;;;;;;;;29.50;58.60;;;;;;4862569;29;19982;-86
2023/06/12 13:20:43;;;;;;;;;;;29.50;58.80;;;;;;4892270;29;19934;-87
2023/06/12 13:23:09;;;;;;;;;;;29.50;58.30;;;;;;4908553;29;20006;-88
2023/06/12 13:25:38;;;;;;;;;;;29.60;60.20;;;;;;4904106;29;19987;-87
2023/06/12 13:28:04;;;;;;;;;;;29.70;61.80;;;;;;4890634;29;19983;-88
2023/06/12 13:30:30;;;;;;;;;;;29.80;61.60;;;;;;4885529;29;19932;-86
2023/06/12 13:32:55;;;;;;;;;;;29.80;61.70;;;;;;4900094;29;19935;-85
2023/06/12 13:35:21;;;;;;;;;;;29.80;60.50;;;;;;4880984;29;19927;-86
2023/06/12 13:37:47;;;;;;;;;;;;;;;;;;4899112;29;19927;-87
2023/06/12 13:40:22;;;;;;;;;;;29.50;60.40;;;;;;4898735;29;20022;-87
2023/06/12 13:42:48;;;;;;;;;;;29.20;61.30;;;;;;4891925;29;19927;-87
2023/06/12 13:45:14;;;;;;;;;;;29.20;61.50;;;;;;4891049;29;19934;-86
2023/06/12 13:47:40;;;;;;;;;;;29.30;63.30;;;;;;4906331;29;20059;-86
2023/06/12 13:50:10;;;;;;;;;;;29.50;60.50;;;;;;4897514;29;20022;-85
2023/06/12 13:52:36;;;;;;;;;;;29.50;59.10;;;;;;4879741;29;20026;-87
2023/06/12 13:55:02;;;;;;;;;;;29.30;57.80;;;;;;4892647;29;20384;-86
2023/06/12 13:57:30;;;;;;;;;;;29.20;56.10;;;;;;4898941;29;19987;-85
2023/06/12 13:59:56;;;;;;;;;;;29.10;54.80;;;;;;4881935;29;19934;-85
2023/06/12 14:02:21;;;;;;;;;;;29.50;53.70;;;;;;4870281;29;19927;-85
2023/06/12 14:04:47;;;;;;;;;;;29.60;53.30;;;;;;4881244;29;19934;-85
2023/06/12 14:07:13;;;;;;;;;;;;;;;;;;4895317;29;20010;-88
2023/06/12 14:09:39;;;;;;;;;;;30.00;53.00;;;;;;4898433;29;19983;-86
2023/06/12 14:12:06;;;;;;;;;;;30.00;53.30;;;;;;4897907;29;19931;-85
2023/06/12 14:14:31;;;;;;;;;;;30.00;53.70;;;;;;4867079;29;19963;-86
2023/06/12 14:16:57;;;;;;;;;;;30.20;53.10;;;;;;4882268;29;20033;-87